Terminal Aerodrome Forecast
Issued by NWS Wilmington, OH

Current Version | Previous Version | Graphics & Text | Print | Product List | Glossary On
Versions: 1 2 3 4 5 6 7 8 9 10 11 12 13
057
FTUS41 KILN 222338
TAFILN
TAF
KILN 222338Z 2300/2324 04012KT P6SM BKN120
     FM230500 04008KT P6SM BKN250
     FM231300 05012G18KT P6SM SCT250=

USA.gov is the U.S. government's official web portal to all federal, state and local government web resources and services.